Main page
METAR-TAF:

METAR-TAF

Airports :

Baghdad International Airport

Baghdad, Iraq

latitude: 33-15-45N, longitude: 44-14-04E, elevation: 35 m

Current weather observation

The report was made 23 minutes ago, at 06:00 UTC
Wind 4 kt from the North/Northwest, varying between West/Northwest and North
Temperature 23°C
Humidity 69%
Pressure 1020 hPa
Visibility: 7000 m

METAR: ORBI 230600Z 33004KT 300V360 7000 NSC 23/17 Q1020 NOSIG

Time: 09:23 (06:23 UTC)

Forecast

The report was made 2 hours and 23 minutes ago, at 04:00 UTC
Forecast valid from 23 at 06 UTC to 24 at 06 UTC
Wind 6 kt from the West/Northwest
Visibility: 4000 m
mist
Becoming
from 23 at 08 UTC to 23 at 10 UTC
Visibility: 8000 m
Few clouds at a height of 4000 ft

TAF: ORBI 230400Z 2306/2406 30006KT 4000 BR NSC BECMG 2308/2310 8000 FEW040

Weather observations and forecasts of more than 4000 airports (METAR and TAF reports).

The available stations are represented by yellow and red dots on the map.

Hover mouse over dot to see the name of the station.

Then click to see weather observations and forecasts.

To change the map : click on the green buttons with a black cross to zoom in, on the green button with a dash to zoom out, or on the green arrows for adjacent maps.


METAR-TAF: